Time;durP1;ratioP1;P1;durP2;ratioP2;P2;SDS_P1;SDS_P2;PMS_P1;PMS_P2;Temp;Humidity;BMP_temperature;BMP_pressure;BME280_temperature;BME280_humidity;BME280_pressure;Samples;Min_cycle;Max_cycle;Signal;HPM_P1;HPM_P2
2024/02/27 00:01:43;;;;;;;0.00;0.00;;;24.20;51.60;;;;;;5007233;28;20205;-42
2024/02/27 00:04:14;;;;;;;0.00;0.00;;;24.20;51.60;;;;;;4998297;28;20204;-42
2024/02/27 00:06:49;;;;;;;0.00;0.00;;;24.20;51.60;;;;;;5008355;28;20205;-41
2024/02/27 00:09:20;;;;;;;0.00;0.00;;;24.20;51.70;;;;;;5007001;28;20223;-42
2024/02/27 00:11:51;;;;;;;0.00;0.00;;;24.30;51.70;;;;;;5007870;28;20229;-42
2024/02/27 00:14:22;;;;;;;0.10;0.10;;;24.30;51.70;;;;;;5021872;28;20207;-43
2024/02/27 00:16:52;;;;;;;0.00;0.00;;;24.30;51.60;;;;;;5027710;28;20668;-42
2024/02/27 00:19:23;;;;;;;0.10;0.10;;;24.30;51.60;;;;;;5028261;28;20220;-42
2024/02/27 00:21:55;;;;;;;0.00;0.00;;;24.30;51.50;;;;;;5027079;28;20208;-42
2024/02/27 00:24:26;;;;;;;0.00;0.00;;;24.40;51.60;;;;;;5015429;28;20197;-41
2024/02/27 00:26:57;;;;;;;0.00;0.00;;;24.40;51.60;;;;;;5026379;28;20204;-41
2024/02/27 00:29:28;;;;;;;0.00;0.00;;;24.40;51.50;;;;;;5027061;28;20232;-43
2024/02/27 00:31:58;;;;;;;0.00;0.00;;;24.40;51.50;;;;;;5018352;28;20231;-42
2024/02/27 00:34:29;;;;;;;0.00;0.00;;;24.40;51.50;;;;;;4993204;28;20237;-42
2024/02/27 00:37:01;;;;;;;0.00;0.00;;;24.40;51.50;;;;;;5002896;28;20262;-41
2024/02/27 00:39:32;;;;;;;0.00;0.00;;;24.40;51.40;;;;;;5014175;28;20213;-42
2024/02/27 00:42:04;;;;;;;0.00;0.00;;;24.40;51.40;;;;;;5015002;28;20206;-41
2024/02/27 00:44:34;;;;;;;0.00;0.00;;;24.50;51.50;;;;;;5014352;28;20196;-43
2024/02/27 00:47:05;;;;;;;0.00;0.00;;;24.50;51.40;;;;;;5014014;28;20200;-42
2024/02/27 00:49:38;;;;;;;0.00;0.00;;;24.50;51.40;;;;;;5014171;28;20213;-41
2024/02/27 00:52:11;;;;;;;0.03;0.03;;;24.50;51.40;;;;;;5014211;28;20205;-41
2024/02/27 00:54:41;;;;;;;0.00;0.00;;;24.50;51.40;;;;;;5014295;28;20602;-41
2024/02/27 00:57:12;;;;;;;0.00;0.00;;;24.50;51.30;;;;;;5014205;28;20200;-42
2024/02/27 00:59:43;;;;;;;0.00;0.00;;;24.50;51.40;;;;;;5014144;28;20217;-42
2024/02/27 01:02:13;;;;;;;0.00;0.00;;;24.50;51.40;;;;;;5013759;28;20211;-42
2024/02/27 01:04:44;;;;;;;0.05;0.05;;;24.50;51.40;;;;;;5013732;28;20204;-42
2024/02/27 01:07:16;;;;;;;0.00;0.00;;;24.50;51.40;;;;;;5013540;28;20197;-42
2024/02/27 01:09:47;;;;;;;0.00;0.00;;;24.50;51.40;;;;;;5012978;28;20235;-41
2024/02/27 01:12:18;;;;;;;0.00;0.00;;;24.50;51.50;;;;;;5010303;28;20201;-42
2024/02/27 01:14:49;;;;;;;0.00;0.00;;;24.50;51.50;;;;;;4994100;28;20562;-41
2024/02/27 01:17:19;;;;;;;0.00;0.00;;;24.50;51.30;;;;;;4993977;28;20378;-41
2024/02/27 01:19:50;;;;;;;0.00;0.00;;;24.50;51.30;;;;;;4994817;28;20221;-43
2024/02/27 01:22:31;;;;;;;0.00;0.00;;;24.50;51.40;;;;;;4994055;28;20251;-43
2024/02/27 01:25:02;;;;;;;0.10;0.10;;;24.50;51.40;;;;;;4994701;28;20197;-41
2024/02/27 01:27:33;;;;;;;0.03;0.03;;;24.50;51.40;;;;;;4993858;28;20201;-41
2024/02/27 01:30:04;;;;;;;0.00;0.00;;;24.50;51.40;;;;;;4994125;28;20224;-42
2024/02/27 01:32:35;;;;;;;0.00;0.00;;;24.50;51.50;;;;;;4994125;28;20202;-44
2024/02/27 01:35:06;;;;;;;0.10;0.10;;;24.50;51.50;;;;;;4994103;28;20201;-41
2024/02/27 01:37:39;;;;;;;0.05;0.05;;;24.50;51.50;;;;;;5008949;28;20205;-41
2024/02/27 01:40:10;;;;;;;0.00;0.00;;;24.50;51.60;;;;;;5013166;28;20232;-41
2024/02/27 01:42:41;;;;;;;0.00;0.00;;;24.50;51.60;;;;;;5006706;28;20200;-42
2024/02/27 01:45:21;;;;;;;0.00;0.00;;;24.50;51.50;;;;;;5005145;28;20193;-43
2024/02/27 01:47:54;;;;;;;0.00;0.00;;;24.50;51.60;;;;;;5000735;28;20197;-43
2024/02/27 01:50:25;;;;;;;0.00;0.00;;;24.50;51.60;;;;;;4990229;28;20240;-42
2024/02/27 01:52:58;;;;;;;0.00;0.00;;;24.50;51.60;;;;;;4990382;28;20684;-42
2024/02/27 01:55:29;;;;;;;0.00;0.00;;;24.50;51.70;;;;;;5023176;28;20568;-44
2024/02/27 01:57:59;;;;;;;0.00;0.00;;;24.60;51.70;;;;;;5028812;28;20211;-41
2024/02/27 02:00:30;;;;;;;0.00;0.00;;;24.60;51.70;;;;;;5011833;28;20232;-42
2024/02/27 02:03:02;;;;;;;0.00;0.00;;;24.60;51.70;;;;;;5008705;28;20213;-45
2024/02/27 02:05:33;;;;;;;0.00;0.00;;;24.60;51.70;;;;;;5009458;28;20255;-41
2024/02/27 02:08:06;;;;;;;0.00;0.00;;;24.60;51.70;;;;;;5018825;28;20656;-41
2024/02/27 02:10:38;;;;;;;0.00;0.00;;;24.60;51.60;;;;;;5029093;28;20239;-41
2024/02/27 02:13:08;;;;;;;0.00;0.00;;;24.70;51.60;;;;;;5029555;28;20200;-42
2024/02/27 02:15:39;;;;;;;0.00;0.00;;;24.60;51.50;;;;;;5016324;28;20208;-43
2024/02/27 02:18:10;;;;;;;0.00;0.00;;;24.70;51.60;;;;;;5009509;28;20211;-43
2024/02/27 02:20:42;;;;;;;0.00;0.00;;;24.70;51.60;;;;;;5011890;28;20219;-45
2024/02/27 02:23:13;;;;;;;0.05;0.05;;;24.70;51.60;;;;;;5028745;28;20206;-41
2024/02/27 02:25:44;;;;;;;0.10;0.10;;;24.70;51.60;;;;;;5029152;28;20203;-42
2024/02/27 02:28:15;;;;;;;0.00;0.00;;;24.70;51.60;;;;;;5029477;28;20592;-45
2024/02/27 02:30:46;;;;;;;0.00;0.00;;;24.70;51.50;;;;;;5028245;28;20231;-41
2024/02/27 02:33:16;;;;;;;0.00;0.00;;;24.70;51.60;;;;;;5028213;28;20207;-47
2024/02/27 02:35:49;;;;;;;0.00;0.00;;;24.70;51.60;;;;;;5024143;28;20843;-42
2024/02/27 02:38:20;;;;;;;0.00;0.00;;;24.70;51.60;;;;;;5004204;28;20190;-43
2024/02/27 02:40:50;;;;;;;0.00;0.00;;;24.70;51.70;;;;;;4989222;28;20729;-43
2024/02/27 02:43:21;;;;;;;0.00;0.00;;;24.70;51.70;;;;;;4988844;28;20213;-42
2024/02/27 02:45:52;;;;;;;0.00;0.00;;;24.70;51.80;;;;;;4988668;28;20666;-43
2024/02/27 02:48:22;;;;;;;0.00;0.00;;;24.70;51.90;;;;;;5006778;28;20203;-42
2024/02/27 02:50:55;;;;;;;0.00;0.00;;;24.70;51.90;;;;;;5028351;28;20231;-44
2024/02/27 02:53:25;;;;;;;0.10;0.10;;;24.70;52.00;;;;;;5028150;28;20223;-41
2024/02/27 02:55:56;;;;;;;0.00;0.00;;;24.80;52.00;;;;;;5028269;28;20208;-44
2024/02/27 02:58:27;;;;;;;0.00;0.00;;;24.70;51.90;;;;;;5012687;28;20201;-42
2024/02/27 03:00:57;;;;;;;0.00;0.00;;;24.70;51.90;;;;;;5015287;28;20228;-43
2024/02/27 03:03:28;;;;;;;0.00;0.00;;;24.80;51.90;;;;;;5028149;28;20218;-42
2024/02/27 03:06:00;;;;;;;0.00;0.00;;;24.80;51.90;;;;;;5019102;28;20608;-41
2024/02/27 03:08:31;;;;;;;0.00;0.00;;;24.80;51.80;;;;;;5008710;28;20201;-41
2024/02/27 03:11:02;;;;;;;0.00;0.00;;;24.80;51.70;;;;;;5007345;28;20225;-43
2024/02/27 03:13:32;;;;;;;0.00;0.00;;;24.80;51.70;;;;;;5020732;28;20581;-44
2024/02/27 03:16:03;;;;;;;0.00;0.00;;;24.80;51.60;;;;;;5027379;28;20200;-42
2024/02/27 03:18:34;;;;;;;0.00;0.00;;;24.80;51.60;;;;;;5028321;28;20200;-43
2024/02/27 03:21:07;;;;;;;0.00;0.00;;;24.80;51.60;;;;;;5026770;28;20665;-42
2024/02/27 03:23:37;;;;;;;0.00;0.00;;;24.80;51.60;;;;;;5028285;28;20196;-41
2024/02/27 03:26:08;;;;;;;0.00;0.00;;;24.80;51.50;;;;;;5027090;28;20211;-43
2024/02/27 03:28:40;;;;;;;0.00;0.00;;;24.80;51.50;;;;;;5026685;28;20652;-41
2024/02/27 03:31:11;;;;;;;0.00;0.00;;;24.80;51.50;;;;;;5027470;28;20232;-42
2024/02/27 03:33:42;;;;;;;0.10;0.10;;;24.80;51.50;;;;;;5014400;28;20207;-41
2024/02/27 03:36:15;;;;;;;0.00;0.00;;;24.80;51.40;;;;;;5004546;28;20672;-43
2024/02/27 03:38:46;;;;;;;0.00;0.00;;;24.80;51.40;;;;;;5022543;28;20599;-42
2024/02/27 03:41:16;;;;;;;0.00;0.00;;;24.80;51.40;;;;;;5004778;28;20721;-41
2024/02/27 03:43:47;;;;;;;0.10;0.10;;;24.80;51.30;;;;;;5008008;28;20204;-41
2024/02/27 03:46:18;;;;;;;0.03;0.03;;;24.80;51.30;;;;;;5006770;28;20291;-42
2024/02/27 03:48:49;;;;;;;0.00;0.00;;;24.80;51.30;;;;;;5008040;28;20204;-41
2024/02/27 03:51:21;;;;;;;0.00;0.00;;;24.80;51.20;;;;;;5005980;28;20701;-43
2024/02/27 03:53:52;;;;;;;0.00;0.00;;;24.80;51.20;;;;;;5027841;28;20579;-41
2024/02/27 03:56:23;;;;;;;0.00;0.00;;;24.80;51.10;;;;;;5027630;28;20200;-42
2024/02/27 03:58:53;;;;;;;0.00;0.00;;;24.80;51.10;;;;;;5027640;28;20664;-42
2024/02/27 04:01:24;;;;;;;0.00;0.00;;;24.80;51.00;;;;;;5027244;28;20204;-45
2024/02/27 04:03:54;;;;;;;0.00;0.00;;;24.80;51.10;;;;;;5027224;28;20202;-41
2024/02/27 04:06:27;;;;;;;0.00;0.00;;;24.90;51.10;;;;;;5020972;28;20207;-42
2024/02/27 04:08:58;;;;;;;0.00;0.00;;;24.80;51.00;;;;;;4996313;28;20252;-42
2024/02/27 04:11:28;;;;;;;0.00;0.00;;;24.90;51.10;;;;;;5006874;28;20700;-41
2024/02/27 04:13:59;;;;;;;0.00;0.00;;;24.90;51.00;;;;;;5011168;28;20207;-42
2024/02/27 04:16:29;;;;;;;0.00;0.00;;;24.90;51.10;;;;;;5021084;28;20207;-42
2024/02/27 04:19:00;;;;;;;0.00;0.00;;;24.90;51.00;;;;;;5031490;28;20196;-42
2024/02/27 04:21:33;;;;;;;0.00;0.00;;;24.90;51.00;;;;;;5031142;28;20211;-41
2024/02/27 04:24:03;;;;;;;0.00;0.00;;;24.90;51.10;;;;;;5023073;28;20707;-42
2024/02/27 04:26:34;;;;;;;0.00;0.00;;;24.90;51.00;;;;;;5011171;28;20204;-41
2024/02/27 04:29:05;;;;;;;0.00;0.00;;;24.90;51.00;;;;;;5023771;28;20227;-42
2024/02/27 04:31:35;;;;;;;0.00;0.00;;;24.90;51.00;;;;;;5030226;28;20244;-42
2024/02/27 04:34:07;;;;;;;0.00;0.00;;;24.90;51.00;;;;;;5031051;28;20552;-42
2024/02/27 04:36:40;;;;;;;0.00;0.00;;;24.90;51.00;;;;;;5020166;28;20201;-42
2024/02/27 04:39:10;;;;;;;0.00;0.00;;;24.90;51.00;;;;;;5011005;28;20207;-42
2024/02/27 04:41:41;;;;;;;0.00;0.00;;;24.90;50.90;;;;;;5013715;28;20204;-42
2024/02/27 04:44:13;;;;;;;0.00;0.00;;;24.90;50.90;;;;;;5010853;28;20632;-41
2024/02/27 04:46:44;;;;;;;0.00;0.00;;;24.90;50.80;;;;;;5009723;28;20722;-42
2024/02/27 04:49:14;;;;;;;0.00;0.00;;;24.90;50.80;;;;;;5010074;28;20668;-42
2024/02/27 04:51:47;;;;;;;0.05;0.05;;;24.90;50.80;;;;;;5009343;28;20232;-43
2024/02/27 04:54:18;;;;;;;0.00;0.00;;;24.90;50.70;;;;;;5018126;28;20204;-42
2024/02/27 04:56:48;;;;;;;0.00;0.00;;;25.00;50.70;;;;;;5030114;28;20316;-42
2024/02/27 04:59:19;;;;;;;0.00;0.00;;;25.00;51.30;;;;;;5030095;28;20232;-42
2024/02/27 05:01:50;;;;;;;0.00;0.00;;;24.90;50.70;;;;;;5030719;28;20207;-43
2024/02/27 05:04:21;;;;;;;0.00;0.00;;;25.00;50.70;;;;;;4993020;28;20197;-42
2024/02/27 05:06:54;;;;;;;0.00;0.00;;;25.00;50.60;;;;;;5010820;28;20725;-42
2024/02/27 05:09:24;;;;;;;0.00;0.00;;;25.00;50.60;;;;;;5029397;28;20216;-42
2024/02/27 05:11:55;;;;;;;0.00;0.00;;;25.00;50.60;;;;;;5030094;28;20228;-42
2024/02/27 05:14:26;;;;;;;0.00;0.00;;;25.00;50.60;;;;;;5030532;28;20204;-42
2024/02/27 05:16:57;;;;;;;0.00;0.00;;;25.00;50.60;;;;;;5012999;28;20303;-42
2024/02/27 05:19:28;;;;;;;0.00;0.00;;;25.00;50.60;;;;;;5010744;28;20225;-43
2024/02/27 05:22:01;;;;;;;0.00;0.00;;;25.00;50.60;;;;;;5023841;28;20203;-43
2024/02/27 05:24:31;;;;;;;0.00;0.00;;;25.00;50.50;;;;;;5029170;28;20204;-41
2024/02/27 05:27:02;;;;;;;0.00;0.00;;;25.00;50.50;;;;;;5030083;28;20603;-45
2024/02/27 05:29:33;;;;;;;0.00;0.00;;;25.00;50.60;;;;;;5030314;28;20270;-42
2024/02/27 05:32:04;;;;;;;0.00;0.00;;;25.00;50.50;;;;;;5029468;28;20341;-41
2024/02/27 05:34:35;;;;;;;0.00;0.00;;;25.00;50.50;;;;;;5029550;28;20220;-43
2024/02/27 05:37:07;;;;;;;0.00;0.00;;;25.00;50.50;;;;;;5015270;28;20205;-43
2024/02/27 05:39:38;;;;;;;0.00;0.00;;;25.10;50.50;;;;;;5006590;28;20750;-42
2024/02/27 05:42:09;;;;;;;0.05;0.05;;;25.00;50.40;;;;;;5009158;28;20692;-43
2024/02/27 05:44:39;;;;;;;0.00;0.00;;;25.10;50.50;;;;;;5009745;28;20628;-42
2024/02/27 05:47:10;;;;;;;0.00;0.00;;;25.10;50.50;;;;;;5009103;28;20201;-43
2024/02/27 05:49:41;;;;;;;0.00;0.00;;;25.10;50.50;;;;;;5009318;28;20227;-45
2024/02/27 05:52:13;;;;;;;0.00;0.00;;;25.10;50.40;;;;;;5009074;28;20236;-44
2024/02/27 05:54:44;;;;;;;0.00;0.00;;;25.00;50.30;;;;;;5009297;28;20207;-43
2024/02/27 05:57:15;;;;;;;0.00;0.00;;;25.10;50.30;;;;;;5007944;28;20669;-44
2024/02/27 05:59:45;;;;;;;0.00;0.00;;;25.00;50.20;;;;;;4993615;28;20221;-43
2024/02/27 06:02:16;;;;;;;0.00;0.00;;;25.10;50.20;;;;;;5010115;28;20212;-46
2024/02/27 06:04:47;;;;;;;0.00;0.00;;;25.00;50.10;;;;;;5021343;28;20204;-43
2024/02/27 06:07:19;;;;;;;0.00;0.00;;;25.00;50.10;;;;;;5001786;28;20592;-45
2024/02/27 06:09:50;;;;;;;0.00;0.00;;;25.00;50.10;;;;;;5009694;28;20411;-44
2024/02/27 06:12:21;;;;;;;0.10;0.10;;;25.00;50.00;;;;;;5009484;28;20228;-43
2024/02/27 06:14:51;;;;;;;0.00;0.00;;;25.00;50.00;;;;;;5008692;28;20204;-44
2024/02/27 06:17:22;;;;;;;0.00;0.00;;;25.00;50.00;;;;;;5021579;28;20212;-43
2024/02/27 06:19:55;;;;;;;0.00;0.00;;;24.90;50.00;;;;;;5028705;28;20227;-43
2024/02/27 06:22:29;;;;;;;0.00;0.00;;;25.00;50.10;;;;;;5028772;28;20675;-42
2024/02/27 06:24:59;;;;;;;0.00;0.00;;;25.00;50.00;;;;;;5028534;28;20792;-42
2024/02/27 06:27:30;;;;;;;0.00;0.00;;;25.00;50.00;;;;;;5027852;28;20471;-41
2024/02/27 06:30:01;;;;;;;0.00;0.00;;;25.00;50.00;;;;;;5028544;28;20221;-42
2024/02/27 06:32:31;;;;;;;0.00;0.00;;;24.90;50.00;;;;;;5016238;28;20229;-42
2024/02/27 06:35:02;;;;;;;0.00;0.00;;;24.90;50.00;;;;;;5011755;28;20562;-42
2024/02/27 06:37:34;;;;;;;0.00;0.00;;;24.90;50.50;;;;;;5012216;28;20200;-42
2024/02/27 06:40:06;;;;;;;0.00;0.00;;;24.90;49.90;;;;;;5012403;28;20217;-42
2024/02/27 06:42:37;;;;;;;0.00;0.00;;;24.90;49.90;;;;;;5011930;28;20284;-41
2024/02/27 06:45:07;;;;;;;0.00;0.00;;;24.90;49.90;;;;;;5012039;28;20197;-41
2024/02/27 06:47:42;;;;;;;0.00;0.00;;;24.90;49.80;;;;;;5011525;28;20192;-41
2024/02/27 06:50:14;;;;;;;0.00;0.00;;;24.90;49.80;;;;;;5011280;28;20235;-41
2024/02/27 06:52:46;;;;;;;0.00;0.00;;;24.90;50.10;;;;;;5011788;28;20298;-42
2024/02/27 06:55:17;;;;;;;0.00;0.00;;;24.90;49.80;;;;;;5012027;28;20200;-43
2024/02/27 06:57:48;;;;;;;0.00;0.00;;;24.90;49.80;;;;;;5011832;28;20645;-42
2024/02/27 07:00:18;;;;;;;0.00;0.00;;;24.90;49.80;;;;;;5011359;28;20228;-43
2024/02/27 07:02:50;;;;;;;0.10;0.10;;;24.90;49.80;;;;;;5011361;28;20259;-43
2024/02/27 07:05:20;;;;;;;0.00;0.00;;;24.90;49.80;;;;;;5011783;28;20197;-42
2024/02/27 07:07:53;;;;;;;0.10;0.10;;;24.90;49.90;;;;;;5011351;28;20193;-41
2024/02/27 07:10:23;;;;;;;0.00;0.00;;;24.80;49.80;;;;;;5011536;28;20680;-41
2024/02/27 07:12:59;;;;;;;0.00;0.00;;;24.80;49.80;;;;;;5011485;28;20707;-42
2024/02/27 07:15:29;;;;;;;0.00;0.00;;;24.80;49.80;;;;;;5011503;28;20680;-43
2024/02/27 07:18:00;;;;;;;0.00;0.00;;;24.80;49.80;;;;;;5011484;28;20204;-44
2024/02/27 07:20:31;;;;;;;0.00;0.00;;;24.80;49.80;;;;;;5010794;28;20578;-42
2024/02/27 07:23:03;;;;;;;0.00;0.00;;;24.80;49.90;;;;;;5011920;28;20204;-41
2024/02/27 07:25:34;;;;;;;0.00;0.00;;;24.80;49.90;;;;;;5011820;28;20247;-43
2024/02/27 07:28:05;;;;;;;0.03;0.03;;;24.80;49.90;;;;;;5011353;28;20569;-42
2024/02/27 07:30:35;;;;;;;0.00;0.00;;;24.80;49.90;;;;;;5011002;28;20708;-44
2024/02/27 07:33:06;;;;;;;0.10;0.10;;;24.80;49.90;;;;;;5008231;28;20271;-42
2024/02/27 07:35:37;;;;;;;0.10;0.10;;;24.80;49.90;;;;;;5011447;28;20201;-42
2024/02/27 07:38:10;;;;;;;0.10;0.10;;;24.70;49.90;;;;;;5011250;28;20200;-42
2024/02/27 07:40:40;;;;;;;0.00;0.00;;;24.70;49.90;;;;;;5011552;28;20220;-42
2024/02/27 07:43:11;;;;;;;0.00;0.00;;;24.70;49.90;;;;;;5011019;28;20189;-43
2024/02/27 07:45:42;;;;;;;0.00;0.00;;;24.70;50.00;;;;;;5011608;28;20204;-42
2024/02/27 07:48:12;;;;;;;0.00;0.00;;;24.70;50.00;;;;;;5015258;28;20204;-42
2024/02/27 07:50:43;;;;;;;0.00;0.00;;;24.70;50.00;;;;;;5015362;28;20220;-42
2024/02/27 07:53:15;;;;;;;0.00;0.00;;;24.70;50.00;;;;;;5015174;28;20224;-42
2024/02/27 07:55:46;;;;;;;0.00;0.00;;;24.70;50.00;;;;;;5014595;28;20649;-42
2024/02/27 07:58:17;;;;;;;0.00;0.00;;;24.70;50.00;;;;;;5001638;28;20193;-42
2024/02/27 08:00:47;;;;;;;0.00;0.00;;;24.70;49.90;;;;;;4995343;28;20217;-42
2024/02/27 08:03:19;;;;;;;0.00;0.00;;;24.70;50.00;;;;;;4994251;28;20213;-42
2024/02/27 08:05:50;;;;;;;0.00;0.00;;;24.60;50.00;;;;;;4995164;28;20650;-42
2024/02/27 08:08:22;;;;;;;0.00;0.00;;;24.60;50.00;;;;;;5013501;28;20680;-42
2024/02/27 08:10:54;;;;;;;0.00;0.00;;;24.60;50.00;;;;;;5007885;28;20220;-42
2024/02/27 08:13:25;;;;;;;0.10;0.10;;;24.60;50.10;;;;;;5011072;28;20232;-42
2024/02/27 08:15:55;;;;;;;0.00;0.00;;;24.60;50.10;;;;;;5010562;28;20421;-42
2024/02/27 08:18:27;;;;;;;0.10;0.10;;;24.60;50.10;;;;;;5001214;28;20224;-43
2024/02/27 08:21:00;;;;;;;0.00;0.00;;;24.60;50.10;;;;;;4991260;28;20217;-42
2024/02/27 08:23:32;;;;;;;0.00;0.00;;;24.60;50.10;;;;;;5023228;28;20208;-45
2024/02/27 08:26:03;;;;;;;0.00;0.00;;;24.60;50.10;;;;;;5015699;28;20188;-42
2024/02/27 08:28:34;;;;;;;0.00;0.00;;;24.60;50.10;;;;;;4996927;28;20202;-42
2024/02/27 08:31:05;;;;;;;0.00;0.00;;;24.60;50.10;;;;;;4991682;28;20232;-42
2024/02/27 08:33:36;;;;;;;0.00;0.00;;;24.60;50.10;;;;;;4991377;28;20237;-42
2024/02/27 08:36:07;;;;;;;0.00;0.00;;;24.60;50.20;;;;;;5019403;28;20564;-43
2024/02/27 08:38:39;;;;;;;0.00;0.00;;;24.60;50.20;;;;;;5010389;28;20268;-42
2024/02/27 08:41:10;;;;;;;0.00;0.00;;;24.60;50.30;;;;;;5011199;28;20276;-43
2024/02/27 08:43:43;;;;;;;0.00;0.00;;;24.50;50.30;;;;;;5009362;28;20216;-43
2024/02/27 08:46:19;;;;;;;0.00;0.00;;;24.50;50.40;;;;;;5010221;28;20292;-42
2024/02/27 08:48:50;;;;;;;0.00;0.00;;;24.50;50.40;;;;;;5022525;28;20311;-43
2024/02/27 08:51:21;;;;;;;0.00;0.00;;;24.50;50.40;;;;;;5030063;28;20278;-44
2024/02/27 08:53:54;;;;;;;0.00;0.00;;;24.50;50.50;;;;;;5013613;28;20299;-41
2024/02/27 08:56:24;;;;;;;0.00;0.00;;;24.50;50.50;;;;;;5009864;28;20197;-42
2024/02/27 08:58:55;;;;;;;0.10;0.10;;;24.50;51.10;;;;;;5008917;28;20197;-42
2024/02/27 09:01:26;;;;;;;0.00;0.00;;;24.50;50.50;;;;;;5009632;28;20200;-43
2024/02/27 09:03:56;;;;;;;0.00;0.00;;;24.50;50.50;;;;;;5008325;28;20205;-42
2024/02/27 09:06:27;;;;;;;0.00;0.00;;;24.50;50.50;;;;;;4996173;28;20201;-43
2024/02/27 09:08:59;;;;;;;0.00;0.00;;;24.50;50.40;;;;;;5010010;28;20197;-42
2024/02/27 09:11:31;;;;;;;0.00;0.00;;;24.50;50.40;;;;;;5009879;28;20197;-43
2024/02/27 09:14:02;;;;;;;0.00;0.00;;;24.50;50.40;;;;;;5009955;28;20232;-42
2024/02/27 09:16:32;;;;;;;0.00;0.00;;;24.50;50.40;;;;;;5015121;28;20192;-43
2024/02/27 09:19:03;;;;;;;0.00;0.00;;;24.50;50.40;;;;;;5029990;28;20207;-42
2024/02/27 09:21:33;;;;;;;0.00;0.00;;;24.50;50.40;;;;;;5030470;28;20552;-41
2024/02/27 09:24:06;;;;;;;0.00;0.00;;;24.50;50.40;;;;;;5028931;28;20361;-41
2024/02/27 09:26:37;;;;;;;0.00;0.00;;;24.50;50.50;;;;;;5029376;28;20199;-42
2024/02/27 09:29:07;;;;;;;0.00;0.00;;;24.50;50.50;;;;;;4993471;28;20233;-42
2024/02/27 09:31:38;;;;;;;0.00;0.00;;;24.50;50.50;;;;;;5023707;28;20200;-42
2024/02/27 09:34:09;;;;;;;0.00;0.00;;;24.50;50.50;;;;;;5029536;28;20230;-42
2024/02/27 09:36:40;;;;;;;0.00;0.00;;;24.50;50.60;;;;;;5015088;28;20196;-42
2024/02/27 09:39:13;;;;;;;0.00;0.00;;;24.40;50.60;;;;;;5009785;28;20292;-42
2024/02/27 09:41:53;;;;;;;0.00;0.00;;;24.40;50.60;;;;;;5009815;28;20213;-42
2024/02/27 09:44:24;;;;;;;0.00;0.00;;;24.40;50.60;;;;;;5020256;28;20230;-42
2024/02/27 09:46:56;;;;;;;0.00;0.00;;;24.40;50.60;;;;;;5016254;28;20796;-42
2024/02/27 09:49:27;;;;;;;0.00;0.00;;;24.40;50.60;;;;;;5009167;28;20633;-42
2024/02/27 09:52:00;;;;;;;0.00;0.00;;;24.40;50.60;;;;;;5009824;28;20735;-42
2024/02/27 09:54:34;;;;;;;0.00;0.00;;;24.40;50.60;;;;;;5006908;28;20227;-42
2024/02/27 09:57:06;;;;;;;0.00;0.00;;;24.40;50.60;;;;;;5020018;28;20574;-42
2024/02/27 09:59:38;;;;;;;0.00;0.00;;;24.40;50.50;;;;;;5029300;28;20234;-43
2024/02/27 10:02:11;;;;;;;0.00;0.00;;;24.40;50.50;;;;;;5028947;28;20208;-42
2024/02/27 10:04:42;;;;;;;0.00;0.00;;;24.40;50.50;;;;;;5017137;28;20663;-42
2024/02/27 10:07:13;;;;;;;0.00;0.00;;;24.40;50.50;;;;;;5009337;28;20204;-41
2024/02/27 10:09:47;;;;;;;0.00;0.00;;;24.40;50.40;;;;;;5007843;28;20216;-41
2024/02/27 10:12:19;;;;;;;0.00;0.00;;;24.40;50.40;;;;;;5029096;28;20215;-42
2024/02/27 10:14:49;;;;;;;0.00;0.00;;;24.40;50.40;;;;;;5028174;28;20262;-42
2024/02/27 10:17:21;;;;;;;0.00;0.00;;;24.40;50.40;;;;;;5028646;28;20196;-42
2024/02/27 10:19:52;;;;;;;0.00;0.00;;;24.40;50.50;;;;;;5027150;28;20220;-42
2024/02/27 10:22:24;;;;;;;0.00;0.00;;;24.40;50.50;;;;;;4995419;28;20276;-41
2024/02/27 10:25:10;;;;;;;0.00;0.00;;;24.30;50.50;;;;;;5027739;28;20687;-41
2024/02/27 10:27:43;;;;;;;0.00;0.00;;;24.30;50.60;;;;;;5028706;28;20239;-42
2024/02/27 10:30:14;;;;;;;0.00;0.00;;;24.30;50.60;;;;;;5028691;28;20699;-42
2024/02/27 10:32:45;;;;;;;0.00;0.00;;;24.30;50.70;;;;;;5028615;28;20205;-41
2024/02/27 10:35:16;;;;;;;0.00;0.00;;;24.30;50.70;;;;;;5028305;28;20247;-42
2024/02/27 10:37:46;;;;;;;0.00;0.00;;;24.30;50.70;;;;;;5017440;28;20279;-41
2024/02/27 10:40:19;;;;;;;0.00;0.00;;;24.20;50.70;;;;;;5008662;28;20224;-41
2024/02/27 10:42:50;;;;;;;0.00;0.00;;;24.20;50.70;;;;;;5006942;28;20213;-42
2024/02/27 10:45:21;;;;;;;0.00;0.00;;;24.20;50.70;;;;;;5008438;28;20201;-43
2024/02/27 10:47:51;;;;;;;0.05;0.05;;;24.30;50.70;;;;;;5007736;28;20566;-41
2024/02/27 10:50:23;;;;;;;0.00;0.00;;;24.30;50.70;;;;;;5007546;28;20275;-41
2024/02/27 10:52:57;;;;;;;0.00;0.00;;;24.30;50.70;;;;;;5020840;28;20192;-41
2024/02/27 10:55:31;;;;;;;0.00;0.00;;;24.30;50.60;;;;;;5014267;28;20243;-41
2024/02/27 10:58:04;;;;;;;0.00;0.00;;;24.30;50.60;;;;;;5001549;28;20653;-42
2024/02/27 11:00:35;;;;;;;0.00;0.00;;;24.30;50.60;;;;;;5010888;28;20221;-42
2024/02/27 11:03:11;;;;;;;0.10;0.10;;;24.30;50.60;;;;;;5002872;28;20224;-42
2024/02/27 11:05:45;;;;;;;0.00;0.00;;;24.30;50.60;;;;;;5000596;28;20596;-42
2024/02/27 11:08:18;;;;;;;0.00;0.00;;;24.30;50.50;;;;;;5000768;28;20613;-43
2024/02/27 11:10:51;;;;;;;0.00;0.00;;;24.30;50.60;;;;;;4999831;28;20214;-44
2024/02/27 11:13:23;;;;;;;0.10;0.10;;;24.30;50.60;;;;;;5000358;28;20193;-42
2024/02/27 11:15:56;;;;;;;0.10;0.10;;;24.20;50.60;;;;;;4999599;28;20193;-44
2024/02/27 11:18:33;;;;;;;0.00;0.00;;;24.20;50.50;;;;;;5001890;28;20572;-43
2024/02/27 11:21:05;;;;;;;0.00;0.00;;;24.20;50.60;;;;;;5001153;28;20268;-42
2024/02/27 11:23:36;;;;;;;0.10;0.10;;;24.20;50.70;;;;;;5001164;28;20200;-43
2024/02/27 11:26:08;;;;;;;0.00;0.00;;;24.20;50.70;;;;;;5000295;28;20198;-49
2024/02/27 11:28:40;;;;;;;0.00;0.00;;;24.20;50.70;;;;;;5001149;28;20193;-49
2024/02/27 11:31:11;;;;;;;0.10;0.10;;;24.20;50.70;;;;;;5000516;28;20225;-42
2024/02/27 11:33:50;;;;;;;0.00;0.00;;;24.20;50.70;;;;;;5001856;28;20240;-43
2024/02/27 11:36:21;;;;;;;0.00;0.00;;;24.10;50.70;;;;;;5002297;28;20196;-42
2024/02/27 11:38:52;;;;;;;0.10;0.10;;;24.20;51.00;;;;;;4999892;28;20205;-42
2024/02/27 11:41:24;;;;;;;0.00;0.00;;;24.20;50.80;;;;;;5003629;28;20704;-42
2024/02/27 11:43:58;;;;;;;0.00;0.00;;;24.20;50.80;;;;;;5001651;28;20193;-43
2024/02/27 11:46:39;;;;;;;0.00;0.00;;;24.20;50.70;;;;;;4999550;28;20199;-41
2024/02/27 11:49:11;;;;;;;0.00;0.00;;;24.20;50.70;;;;;;5011008;28;20197;-42
2024/02/27 11:51:42;;;;;;;0.00;0.00;;;24.20;50.70;;;;;;5011522;28;20200;-42
2024/02/27 11:54:16;;;;;;;0.00;0.00;;;24.20;50.80;;;;;;5011380;28;20232;-42
2024/02/27 11:56:51;;;;;;;0.00;0.00;;;24.10;50.70;;;;;;5011206;28;20232;-43
2024/02/27 11:59:22;;;;;;;0.00;0.00;;;24.10;50.70;;;;;;5011142;28;20216;-45
2024/02/27 12:02:03;;;;;;;0.00;0.00;;;24.10;50.70;;;;;;5011133;28;20215;-45
2024/02/27 12:08:01;;;;;;;0.03;0.03;;;24.10;50.70;;;;;;4993178;28;20204;-42
2024/02/27 12:10:31;;;;;;;0.00;0.00;;;24.10;50.70;;;;;;5011045;28;20229;-44
2024/02/27 12:13:03;;;;;;;0.00;0.00;;;24.00;50.70;;;;;;5011546;28;20205;-42
2024/02/27 12:15:34;;;;;;;0.00;0.00;;;24.00;50.80;;;;;;5011177;28;20225;-43
2024/02/27 12:18:49;;;;;;;0.05;0.05;;;24.00;50.80;;;;;;5011546;28;20424;-43
2024/02/27 12:21:31;;;;;;;0.10;0.10;;;24.00;50.80;;;;;;5011929;28;20585;-44
2024/02/27 12:27:23;;;;;;;0.03;0.03;;;24.00;50.80;;;;;;5007277;28;20216;-41
2024/02/27 12:29:56;;;;;;;0.00;0.00;;;24.00;50.80;;;;;;5010507;28;20217;-43
2024/02/27 12:33:02;;;;;;;0.00;0.00;;;24.00;50.90;;;;;;4997190;28;20208;-42
2024/02/27 12:35:33;;;;;;;0.00;0.00;;;24.00;51.00;;;;;;4994132;28;20712;-42
2024/02/27 12:38:04;;;;;;;0.00;0.00;;;24.00;50.90;;;;;;5013065;28;20802;-43
2024/02/27 12:40:35;;;;;;;0.08;0.08;;;24.00;51.00;;;;;;5014636;28;20232;-41
2024/02/27 12:43:06;;;;;;;0.00;0.00;;;23.90;51.00;;;;;;5014523;28;20196;-42
2024/02/27 12:45:39;;;;;;;0.00;0.00;;;23.90;51.00;;;;;;5014327;28;20209;-42
2024/02/27 12:52:15;;;;;;;0.00;0.00;;;23.90;51.00;;;;;;5014555;28;20184;-41
2024/02/27 12:54:47;;;;;;;0.00;0.00;;;23.90;50.90;;;;;;5013853;28;20225;-42
2024/02/27 12:57:17;;;;;;;0.00;0.00;;;23.90;50.90;;;;;;5013965;28;20197;-42
2024/02/27 13:02:34;;;;;;;0.00;0.00;;;23.90;51.00;;;;;;5014203;28;20208;-42
2024/02/27 13:05:07;;;;;;;0.00;0.00;;;23.90;51.00;;;;;;5012524;28;20219;-43
2024/02/27 13:07:41;;;;;;;0.00;0.00;;;23.90;51.00;;;;;;5008531;28;20200;-43
2024/02/27 13:10:12;;;;;;;0.00;0.00;;;23.80;51.00;;;;;;5014347;28;20303;-43
2024/02/27 13:13:21;;;;;;;0.00;0.00;;;23.80;51.00;;;;;;5013539;28;20295;-42
2024/02/27 13:15:52;;;;;;;0.00;0.00;;;23.80;51.00;;;;;;5013228;28;20220;-43
2024/02/27 13:18:25;;;;;;;0.00;0.00;;;23.80;51.00;;;;;;5013721;28;20193;-42
2024/02/27 13:20:55;;;;;;;0.00;0.00;;;23.80;51.00;;;;;;5013563;28;20217;-42
2024/02/27 13:23:26;;;;;;;0.00;0.00;;;23.80;51.10;;;;;;5013110;28;20680;-42
2024/02/27 13:30:09;;;;;;;0.00;0.00;;;23.80;51.10;;;;;;4993923;28;20205;-42